Walker, WV (26180)

3:29 PM EDT on August 30, 2014 (GMT -0400)
Pleasants Energy | Change Station
CLOSE
Current Station
Personal Weather Station
Location: St. Marys, WV
Elevation: 640 ft
Nearby Weather Stations

Elev 640 ft 39.33 °N, 81.36 °W | Updated 22 seconds ago

Clear
Clear
90.1 °F
Feels Like 94 °F
N
11.0
Wind Variable Wind from SSW
Gusts 15.0 mph

Today
High -- | Low -- °F
--% Chance of Precip.
Yesterday
High -- | Low -- °F
Precip. -- in
6:52 AM 7:59 PM
Waxing Crescent, 24% visible
Pressure 30.07 in
Visibility 10.0 miles
Clouds Few 6000 ft
Heat Index 94 °F
Dew Point 68 °F
Humidity 48%
Rainfall 0.00 in
Snow Depth Not available.
UV 8 out of 12
Pollen 9.20 out of 12
Air Quality Not available.
Flu Activity Not available.
METAR KPKB 301853Z 21009G18KT 10SM FEW060 32/18 A3009 RMK AO2 SLP183 T03170178

More Conditions Fewer Conditions

Pressure 30.07 in
Visibility 10.0 miles
Clouds Few 6000 ft
Heat Index 94 °F
Dew Point 68 °F
Humidity 48%
Rainfall 0.00 in
Snow Depth Not available.
UV 8 out of 12
Pollen 9.20 out of 12
Air Quality Not available.
Flu Activity Not available.
METAR KPKB 301853Z 21009G18KT 10SM FEW060 32/18 A3009 RMK AO2 SLP183 T03170178

More Conditions Fewer Conditions

10-Day Weather Forecast

Almanac

Astronomy

Aug. 30, 2014 Rise Set
Actual Time 6:52 AM EDT 7:59 PM EDT
Civil Twilight 6:24 AM EDT 8:26 PM EDT
Nautical Twilight 5:51 AM EDT 8:59 PM EDT
Astronomical Twilight 5:17 AM EDT 9:33 PM EDT
Moon 11:36 AM EDT 10:34 PM EDT
Length of Visible Light 14h 01m
Length of Day
13h 06m
Tomorrow will be 2m 25s shorter.
Waxing Crescent, 24% of the Moon is Illuminated
Today
Waxing Crescent
Sep 2
First Quarter
Sep 8
Full
Sep 15
Last Quarter
Sep 24
New

Today's Extremes

State Highs State Lows

Community

WunderPhotos

Upload Photos

1,748,608 photos uploaded!

WunderBlogs® & News

Nearby

Snow Depth

Station Depth Elevation
No new snow has been reported.

Earthquake Activity

City Distance Mag. Time & Date
No recent earthquake activity has been reported nearby.
Minimum magnitude displayed is 2.5.

Coastal Water Temperatures

Place Temperature
No Stations Reporting

Nearby Weather Stations